Aviation Digital Data Service (ADDS)

Output produced by METARs form (1613 UTC 30 October 2020)
found at http://www.aviationweather.gov/metar/data/
 
KPNS 301553Z 35012G22KT 10SM OVC022 15/08 A3016 RMK AO2 SLP215 T01500083
KPNS 301126Z 3012/3112 36014G20KT P6SM OVC010 
     FM301400 35010G18KT P6SM BKN015 
     FM301700 36010KT P6SM SKC 
     FM310600 03008KT P6SM SKC